Portada
METAR-TAF:

METAR-TAF

Aeroports :

Tanna, Vanuatu

latitud: 19-27-18S, longitud: 169-13-26E, altitud: 6 m

Observació

L'informe es va fer fa 1 hora i 22 minuts, a les 15:00 UTC
Vent 6 kt del Sud/Sud-Est
Temperatura 24°C
Humitat 94%
Pressió 1004 hPa
Visibilitat 10 km o més
Escasses núvols a una alçada de 2000 ft

METAR: NVVW 181500Z 15006KT 9999 FEW020 24/23 Q1004

Hora: 03:22 (16:22 UTC)

Pronòstic

L'informe es va fer fa 6 hores i 22 minuts, a les 10:00 UTC
Pronòstic vàlid del 18 a les 12 UTC al 19 a les 12 UTC
Vent 4 kt amb direcció variable
Visibilitat 10 km o més
Núvols disperses a una alçada de 2000 ft
Probabilitat 40%
entre IN i TE UTC
Visibilitat: 9000 m
Cel ennuvolat a una alçada de 1800 ft
xàfecs de pluja

TAF: NVVW 181000Z 1812/1912 VRB04KT 9999 SCT020 PROB40 INTER 1812/1818 9000 -SHRA BKN018

Observacions i pronòstics meteorològics de més de 4000 aeroports (METAR i TAF).

Les estacions disponibles són els punts grocs i vermells al mapa.

Posi el ratolí al punt desitjat per veure el nom de l'estació.

Feu clic per veure les observacions i els pronòstics meteorològics.

Per canviar el mapa: feu clic els botons verds amb una creu de color negre per apropar; al botó verd amb un guió per allunyar la imatge; o en les fletxes verdes per a mapes adjacents.


METAR-TAF: